Terminal Aerodrome Forecast
Issued by NWS Bismarck, ND

Home | Current Version | Previous Version | Graphics & Text | Print | Product List | Glossary On
Versions: 1 2 3 4 5 6 7 8 9 10 11 12 13
000
FTUS43 KBIS 171134
TAFBIS
TAF
KBIS 171134Z 1712/1812 27005KT P6SM SKC
     FM171500 28009KT P6SM FEW080 WS020/31035KT
     FM171800 28014KT P6SM SKC WS020/29040KT
     FM180000 28011KT P6SM SKC
     FM180300 27007KT P6SM SKC=

USA.gov is the U.S. government's official web portal to all federal, state and local government web resources and services.